Time;durP1;ratioP1;P1;durP2;ratioP2;P2;SDS_P1;SDS_P2;PMS_P1;PMS_P2;Temp;Humidity;BMP_temperature;BMP_pressure;BME280_temperature;BME280_humidity;BME280_pressure;Samples;Min_cycle;Max_cycle;Signal;HPM_P1;HPM_P2
2022/12/12 00:00:53;;;;;;;48.60;24.63;;;;;;;-0.41;76.66;99205.36;2044263;87;31021;-65
2022/12/12 00:03:57;;;;;;;47.70;25.80;;;;;;;-0.42;76.58;99199.24;2009621;88;28059;-65
2022/12/12 00:06:59;;;;;;;47.75;25.52;;;;;;;-0.42;76.61;99197.92;2044349;86;30175;-65
2022/12/12 00:10:01;;;;;;;49.42;26.17;;;;;;;-0.44;76.53;99194.89;2044403;87;27645;-65
2022/12/12 00:13:03;;;;;;;50.63;26.52;;;;;;;-0.42;76.69;99202.30;2044516;87;28620;-65
2022/12/12 00:16:06;;;;;;;49.38;27.30;;;;;;;-0.41;76.69;99197.46;2009629;88;31051;-65
2022/12/12 00:19:07;;;;;;;49.63;25.68;;;;;;;-0.41;76.73;99200.94;2044401;87;33626;-66
2022/12/12 00:22:09;;;;;;;46.25;24.20;;;;;;;-0.41;76.69;99198.78;2044310;87;29327;-66
2022/12/12 00:25:11;;;;;;;46.68;25.95;;;;;;;-0.43;76.67;99196.20;2044335;87;27745;-65
2022/12/12 00:28:13;;;;;;;45.67;25.85;;;;;;;-0.42;76.82;99195.30;2044342;87;29480;-66
2022/12/12 00:31:15;;;;;;;46.85;24.82;;;;;;;-0.41;76.75;99198.78;2009737;88;31043;-65
2022/12/12 00:34:17;;;;;;;47.58;25.62;;;;;;;-0.41;76.79;99193.52;2044324;87;33779;-65
2022/12/12 00:37:19;;;;;;;45.63;25.95;;;;;;;-0.41;76.86;99200.94;2044339;87;29342;-65
2022/12/12 00:40:20;;;;;;;48.90;26.10;;;;;;;-0.40;76.87;99196.09;2044494;87;27701;-65
2022/12/12 00:43:22;;;;;;;49.38;26.77;;;;;;;-0.41;76.84;99198.31;2009844;88;28663;-65
2022/12/12 00:46:25;;;;;;;50.25;25.00;;;;;;;-0.41;76.84;99198.78;2044302;87;31032;-64
2022/12/12 00:49:26;;;;;;;45.50;24.75;;;;;;;-0.42;76.90;99200.99;2044478;86;33741;-66
2022/12/12 00:52:28;;;;;;;51.73;25.57;;;;;;;-0.43;76.83;99206.72;2044244;87;29539;-65
2022/12/12 00:55:29;;;;;;;45.33;25.72;;;;;;;-0.45;76.88;99207.20;2010043;88;27763;-65
2022/12/12 00:58:32;;;;;;;42.90;23.80;;;;;;;-0.43;76.97;99209.34;2044456;87;28634;-65
2022/12/12 01:01:34;;;;;;;49.83;25.60;;;;;;;-0.42;77.01;99209.77;2044519;87;31106;-65
2022/12/12 01:04:36;;;;;;;46.42;24.85;;;;;;;-0.41;76.99;99210.16;2041263;86;33958;-65
2022/12/12 01:07:38;;;;;;;51.60;24.25;;;;;;;-0.41;77.01;99214.09;2012033;88;29380;-65
2022/12/12 01:10:39;;;;;;;44.13;23.55;;;;;;;-0.41;77.03;99215.41;2035233;87;27789;-65
2022/12/12 01:13:42;;;;;;;41.95;24.98;;;;;;;-0.40;76.97;99221.56;2011926;88;28656;-65
2022/12/12 01:16:44;;;;;;;43.02;24.90;;;;;;;-0.41;77.02;99218.52;2035122;87;31028;-65
2022/12/12 01:19:45;;;;;;;45.35;24.57;;;;;;;-0.40;77.06;99223.73;2011889;88;33763;-66
2022/12/12 01:22:47;;;;;;;46.28;24.90;;;;;;;-0.39;77.08;99223.30;2035355;87;29970;-65
2022/12/12 01:25:49;;;;;;;44.95;24.07;;;;;;;-0.38;77.12;99218.45;2011597;88;27700;-66
2022/12/12 01:28:51;;;;;;;44.75;23.87;;;;;;;-0.37;77.05;99224.13;2035186;87;28814;-65
2022/12/12 01:31:53;;;;;;;48.42;25.55;;;;;;;-0.35;77.10;99215.75;2011849;88;31065;-64
2022/12/12 01:34:55;;;;;;;45.43;24.50;;;;;;;-0.35;77.16;99219.23;2035167;87;33766;-64
2022/12/12 01:37:56;;;;;;;44.50;25.00;;;;;;;-0.33;77.15;99215.27;2011781;88;30273;-65
2022/12/12 01:40:58;;;;;;;41.92;23.45;;;;;;;-0.34;77.09;99211.76;2035152;87;27718;-65
2022/12/12 01:44:07;;;;;;;38.35;22.82;;;;;;;-0.33;77.07;99209.55;2012338;88;29436;-65
2022/12/12 01:47:09;;;;;;;45.63;22.70;;;;;;;-0.36;76.99;99209.61;2012640;87;31039;-66
2022/12/12 01:50:11;;;;;;;42.40;23.25;;;;;;;-0.37;77.04;99206.56;2011684;88;32972;-65
2022/12/12 01:53:14;;;;;;;39.40;22.25;;;;;;;-0.36;77.09;99204.34;2034859;87;29490;-66
2022/12/12 01:56:18;;;;;;;43.95;23.12;;;;;;;-0.34;77.13;99206.96;2011597;88;27792;-65
2022/12/12 01:59:23;;;;;;;41.80;23.18;;;;;;;-0.34;77.08;99206.96;2035231;87;28710;-65
2022/12/12 02:02:24;;;;;;;42.40;23.25;;;;;;;-0.33;77.07;99213.49;2011814;88;31083;-65
2022/12/12 02:05:37;;;;;;;42.25;22.22;;;;;;;-0.33;77.09;99212.64;2030741;87;33014;-65
2022/12/12 02:08:39;;;;;;;43.02;22.70;;;;;;;-0.32;77.14;99211.71;2026442;87;29366;-66
2022/12/12 02:11:51;;;;;;;43.52;22.17;;;;;;;-0.34;77.06;99215.70;2029564;87;27733;-65
2022/12/12 02:14:53;;;;;;;41.77;22.27;;;;;;;-0.36;76.94;99217.50;2026520;87;28651;-65
2022/12/12 02:18:09;;;;;;;44.55;22.85;;;;;;;-0.36;77.02;99216.66;2026789;87;31083;-65
2022/12/12 02:21:47;;;;;;;46.77;22.40;;;;;;;-0.36;77.08;99215.34;2026386;87;33749;-66
2022/12/12 02:25:27;;;;;;;43.23;21.40;;;;;;;-0.35;77.18;99215.29;2026454;87;29340;-66
2022/12/12 02:28:51;;;;;;;42.98;22.15;;;;;;;-0.32;77.23;99216.54;2026609;87;27728;-66
2022/12/12 02:32:00;;;;;;;45.17;22.13;;;;;;;-0.32;77.16;99215.66;2026095;87;28704;-66
2022/12/12 02:35:13;;;;;;;45.92;23.07;;;;;;;-0.35;77.11;99212.66;2026449;87;31828;-64
2022/12/12 02:38:32;;;;;;;48.35;23.90;;;;;;;-0.35;77.09;99207.86;2026214;87;33526;-65
2022/12/12 02:41:43;;;;;;;43.02;23.02;;;;;;;-0.35;77.14;99213.97;2027763;86;29339;-64
2022/12/12 02:44:53;;;;;;;44.25;23.85;;;;;;;-0.36;77.14;99212.70;2026590;87;27650;-65
2022/12/12 02:48:03;;;;;;;47.03;22.58;;;;;;;-0.37;77.14;99213.60;2026180;87;29913;-65
2022/12/12 02:51:07;;;;;;;39.48;21.65;;;;;;;-0.36;77.13;99215.34;2025842;87;31062;-65
2022/12/12 02:54:18;;;;;;;35.52;17.65;;;;;;;-0.38;77.15;99210.09;2026305;86;32994;-65
2022/12/12 02:57:23;;;;;;;41.48;21.77;;;;;;;-0.36;77.19;99215.34;2026429;87;29337;-65
2022/12/12 03:00:25;;;;;;;37.63;21.62;;;;;;;-0.36;77.27;99208.30;2026613;87;27733;-65
2022/12/12 03:11:07;;;;;;;45.70;21.40;;;;;;;-0.31;77.36;99212.12;2011823;88;33031;-65
2022/12/12 03:14:25;;;;;;;49.80;23.05;;;;;;;-0.30;77.32;99209.91;2034758;87;29562;-64
2022/12/12 03:17:56;;;;;;;45.28;22.37;;;;;;;-0.28;77.29;99213.84;2011998;88;27754;-65
2022/12/12 03:21:08;;;;;;;51.68;23.45;;;;;;;-0.27;77.36;99213.80;2005990;88;28702;-65
2022/12/12 03:24:15;;;;;;;42.50;22.58;;;;;;;-0.25;77.43;99217.27;1984319;89;31066;-65
2022/12/12 03:27:39;;;;;;;44.45;22.48;;;;;;;-0.23;77.44;99216.78;1949309;91;32997;-65
2022/12/12 03:30:46;;;;;;;45.65;22.70;;;;;;;-0.22;77.40;99213.25;1948790;91;28834;-64
2022/12/12 03:34:04;;;;;;;42.55;22.80;;;;;;;-0.21;77.36;99213.67;1949542;91;27729;-64
2022/12/12 03:37:22;;;;;;;44.77;23.45;;;;;;;-0.22;77.23;99211.94;1949523;91;28658;-64
2022/12/12 03:40:32;;;;;;;43.58;22.93;;;;;;;-0.22;77.32;99206.67;1949423;91;31141;-65
2022/12/12 03:43:38;;;;;;;41.88;23.38;;;;;;;-0.20;77.31;99213.20;1949487;91;32982;-64
2022/12/12 03:46:55;;;;;;;42.93;23.07;;;;;;;-0.22;77.36;99204.47;1949464;91;30144;-64
2022/12/12 03:50:15;;;;;;;45.35;21.70;;;;;;;-0.19;77.40;99208.36;1949817;91;27673;-65
2022/12/12 03:53:38;;;;;;;45.63;21.68;;;;;;;-0.21;77.37;99197.88;1949883;91;28657;-65
2022/12/12 03:56:53;;;;;;;37.33;21.45;;;;;;;-0.18;77.46;99203.51;1949742;91;31074;-65
2022/12/12 04:00:05;;;;;;;44.80;22.87;;;;;;;-0.17;77.41;99206.55;1950064;91;33022;-65
2022/12/12 04:03:15;;;;;;;40.98;21.17;;;;;;;-0.17;77.42;99198.23;1952170;88;29547;-65
2022/12/12 04:06:48;;;;;;;44.30;22.55;;;;;;;-0.16;77.45;99199.92;2014403;88;27857;-64
2022/12/12 04:13:36;;;;;;;40.08;22.10;;;;;;;-0.19;77.41;99196.08;2014029;88;31259;-65
2022/12/12 04:16:41;;;;;;;47.30;23.27;;;;;;;-0.20;77.31;99193.46;1967556;89;32988;-65
2022/12/12 04:23:50;;;;;;;47.93;23.57;;;;;;;-0.20;77.44;99186.45;2050368;86;28474;-65
2022/12/12 04:27:04;;;;;;;42.85;22.25;;;;;;;-0.20;77.41;99185.56;2050321;86;29134;-64
2022/12/12 04:30:13;;;;;;;41.05;23.02;;;;;;;-0.21;77.41;99184.72;2049293;86;31843;-64
2022/12/12 04:33:17;;;;;;;46.68;23.07;;;;;;;-0.19;77.54;99188.61;2050162;86;32970;-65
2022/12/12 04:36:19;;;;;;;43.45;23.73;;;;;;;-0.20;77.48;99189.52;2049872;86;29570;-65
2022/12/12 04:39:21;;;;;;;42.45;22.62;;;;;;;-0.20;77.47;99193.03;2050121;86;27684;-65
2022/12/12 04:42:27;;;;;;;50.50;24.37;;;;;;;-0.22;77.45;99193.52;2049937;86;28664;-65
2022/12/12 04:45:33;;;;;;;46.05;24.20;;;;;;;-0.20;77.60;99196.09;2050109;86;31040;-65
2022/12/12 04:48:47;;;;;;;47.03;24.43;;;;;;;-0.23;77.41;99193.09;2050276;86;33565;-65
2022/12/12 04:51:52;;;;;;;41.20;23.15;;;;;;;-0.26;77.51;99191.84;2049926;86;29353;-65
2022/12/12 04:55:07;;;;;;;46.23;24.07;;;;;;;-0.23;77.65;99189.58;2049562;86;27720;-65
2022/12/12 04:58:10;;;;;;;48.28;25.92;;;;;;;-0.22;77.63;99192.63;2049131;86;29087;-65
2022/12/12 05:01:34;;;;;;;51.80;25.70;;;;;;;-0.23;77.64;99186.95;2049938;86;31065;-64
2022/12/12 05:05:13;;;;;;;44.33;23.32;;;;;;;-0.25;77.56;99182.20;2049866;86;33639;-65
2022/12/12 05:08:29;;;;;;;41.70;22.67;;;;;;;-0.27;77.52;99182.69;2032760;87;29344;-65
2022/12/12 05:11:30;;;;;;;45.00;23.45;;;;;;;-0.30;77.62;99182.28;2033211;87;27710;-65
2022/12/12 05:14:32;;;;;;;40.73;21.85;;;;;;;-0.32;77.57;99182.33;2006334;87;28690;-65
2022/12/12 05:17:42;;;;;;;47.33;23.30;;;;;;;-0.33;77.61;99186.33;2033102;87;31043;-65
2022/12/12 05:20:44;;;;;;;45.48;24.43;;;;;;;-0.35;77.57;99188.97;2036536;87;33045;-67
2022/12/12 05:23:45;;;;;;;45.75;22.13;;;;;;;-0.35;77.65;99185.49;2039373;86;30318;-66
2022/12/12 05:26:47;;;;;;;41.55;22.85;;;;;;;-0.36;77.67;99187.24;2039502;87;27723;-64
2022/12/12 05:29:48;;;;;;;40.00;21.68;;;;;;;-0.36;77.70;99180.66;2039518;87;29496;-67
2022/12/12 05:32:50;;;;;;;40.58;22.65;;;;;;;-0.37;77.64;99180.25;2039494;87;31658;-67
2022/12/12 05:35:52;;;;;;;39.90;22.07;;;;;;;-0.38;77.72;99190.36;2039252;87;33045;-68
2022/12/12 05:38:53;;;;;;;38.92;22.25;;;;;;;-0.37;77.81;99186.83;2039467;87;29326;-65
2022/12/12 05:41:55;;;;;;;44.03;22.20;;;;;;;-0.35;77.90;99184.17;2039801;87;27574;-66
2022/12/12 05:44:57;;;;;;;43.05;22.65;;;;;;;-0.36;77.81;99178.03;2039243;87;28213;-67
2022/12/12 05:47:58;;;;;;;43.17;21.00;;;;;;;-0.36;77.86;99175.87;2039237;87;31835;-66
2022/12/12 05:51:01;;;;;;;42.95;21.97;;;;;;;-0.34;77.90;99186.76;2039224;87;32970;-66
2022/12/12 05:54:03;;;;;;;43.05;22.70;;;;;;;-0.34;77.86;99183.28;2038922;87;30278;-67
2022/12/12 05:57:05;;;;;;;42.65;23.15;;;;;;;-0.32;77.83;99174.88;2039253;86;27779;-66
2022/12/12 06:00:08;;;;;;;39.48;21.80;;;;;;;-0.34;77.82;99180.18;2039343;87;28749;-66
2022/12/12 06:03:10;;;;;;;39.40;22.17;;;;;;;-0.34;77.82;99184.13;2039289;87;31737;-65
2022/12/12 06:06:12;;;;;;;38.10;20.80;;;;;;;-0.33;77.80;99190.27;2039194;87;34061;-64
2022/12/12 06:09:14;;;;;;;38.35;21.37;;;;;;;-0.33;77.88;99186.33;2039491;87;30136;-68
2022/12/12 06:12:16;;;;;;;39.27;21.00;;;;;;;-0.31;78.08;99185.37;2039946;86;27729;-66
2022/12/12 06:15:17;;;;;;;48.15;23.22;;;;;;;-0.29;78.02;99189.28;2039210;87;28649;-63
2022/12/12 06:18:19;;;;;;;45.90;23.55;;;;;;;-0.28;78.01;99194.95;2039279;87;31829;-65
2022/12/12 06:21:22;;;;;;;46.65;23.60;;;;;;;-0.25;78.03;99200.63;2033384;87;33759;-65
2022/12/12 06:24:23;;;;;;;48.87;24.50;;;;;;;-0.25;77.98;99201.94;2032890;87;29419;-66
2022/12/12 06:27:25;;;;;;;40.55;22.27;;;;;;;-0.26;77.93;99201.05;2032882;87;27739;-65
2022/12/12 06:30:27;;;;;;;40.78;20.82;;;;;;;-0.26;77.95;99198.89;2032892;87;28905;-66
2022/12/12 06:33:30;;;;;;;38.95;21.52;;;;;;;-0.24;78.14;99201.89;2032830;87;31726;-65
2022/12/12 06:36:32;;;;;;;40.60;22.45;;;;;;;-0.22;78.15;99196.14;2032645;87;33797;-67
2022/12/12 06:39:33;;;;;;;38.20;20.88;;;;;;;-0.22;78.11;99204.47;2032648;87;29200;-66
2022/12/12 06:42:35;;;;;;;35.95;20.08;;;;;;;-0.23;78.08;99206.25;2033312;87;27733;-66
2022/12/12 06:45:37;;;;;;;39.63;21.27;;;;;;;-0.23;78.11;99213.27;2032382;87;29506;-67
2022/12/12 06:48:38;;;;;;;34.13;20.17;;;;;;;-0.22;78.20;99213.25;2032601;87;31093;-67
2022/12/12 06:51:44;;;;;;;35.15;19.30;;;;;;;-0.21;78.21;99220.68;2032757;87;32937;-65
2022/12/12 06:54:45;;;;;;;31.68;19.35;;;;;;;-0.22;78.23;99217.20;2033314;87;30151;-65
2022/12/12 06:57:47;;;;;;;37.15;20.85;;;;;;;-0.21;78.37;99217.62;2032843;86;27769;-65
2022/12/12 07:00:52;;;;;;;40.30;21.65;;;;;;;-0.20;78.38;99221.09;2032677;87;28649;-65
2022/12/12 07:03:53;;;;;;;;;;;;;;;-0.20;78.43;99215.84;2034946;87;30480;-64
2022/12/12 07:06:55;;;;;;;34.98;18.65;;;;;;;-0.17;78.57;99219.72;2032803;87;32935;-66
2022/12/12 07:09:57;;;;;;;29.30;18.35;;;;;;;-0.16;78.70;99218.82;2032786;86;30099;-65
2022/12/12 07:12:58;;;;;;;31.75;19.15;;;;;;;-0.14;78.66;99223.60;2032743;87;27642;-64
2022/12/12 07:16:00;;;;;;;37.00;20.50;;;;;;;-0.10;78.80;99220.44;2033555;87;28874;-64
2022/12/12 07:19:02;;;;;;;38.83;21.15;;;;;;;-0.07;78.74;99226.95;2033002;87;31789;-66
2022/12/12 07:22:03;;;;;;;36.33;18.00;;;;;;;-0.04;78.77;99230.83;2038811;87;33487;-65
2022/12/12 07:25:07;;;;;;;31.10;18.37;;;;;;;-0.03;78.59;99230.78;2039456;87;29369;-65
2022/12/12 07:28:11;;;;;;;36.63;19.62;;;;;;;-0.02;78.74;99231.67;2039634;87;27836;-65
2022/12/12 07:31:16;;;;;;;31.07;18.67;;;;;;;0.03;78.74;99227.60;2039719;87;28833;-65
2022/12/12 07:34:17;;;;;;;35.68;19.70;;;;;;;0.05;78.78;99231.06;2039859;87;30246;-66
2022/12/12 07:37:19;;;;;;;34.43;19.17;;;;;;;0.07;78.82;99229.27;2039429;87;33041;-66
2022/12/12 07:40:21;;;;;;;35.83;20.55;;;;;;;0.14;78.98;99225.56;2039546;87;29416;-66
2022/12/12 07:43:22;;;;;;;35.52;19.57;;;;;;;0.18;78.89;99228.55;2039787;86;27642;-65
2022/12/12 07:46:25;;;;;;;33.58;19.75;;;;;;;0.23;78.94;99233.69;2039455;87;28697;-64
2022/12/12 07:49:28;;;;;;;36.20;19.75;;;;;;;0.27;78.89;99233.57;2039726;86;31054;-65
2022/12/12 07:52:29;;;;;;;32.85;18.87;;;;;;;0.32;78.81;99240.07;2039674;87;33047;-64
2022/12/12 07:55:31;;;;;;;34.92;19.37;;;;;;;0.37;78.96;99240.80;2039517;87;29330;-65
2022/12/12 07:58:33;;;;;;;33.13;21.12;;;;;;;0.45;78.97;99243.23;2039601;87;27720;-65
2022/12/12 08:01:35;;;;;;;43.28;23.18;;;;;;;0.47;78.84;99242.75;2039436;87;28988;-62
2022/12/12 08:04:37;;;;;;;35.58;22.07;;;;;;;0.53;78.91;99241.72;2040435;87;31056;-62
2022/12/12 08:07:38;;;;;;;37.55;22.07;;;;;;;0.59;78.89;99246.84;2039719;87;32959;-61
2022/12/12 08:10:40;;;;;;;38.13;21.93;;;;;;;0.64;78.84;99246.28;2039342;87;30518;-61
2022/12/12 08:13:43;;;;;;;44.20;25.15;;;;;;;0.68;78.75;99246.59;2039426;87;27661;-62
2022/12/12 08:16:45;;;;;;;52.33;26.68;;;;;;;0.73;78.71;99243.86;2039718;87;28918;-62
2022/12/12 08:19:46;;;;;;;50.03;25.27;;;;;;;0.78;78.71;99245.05;2036755;86;31585;-63
2022/12/12 08:22:48;;;;;;;41.05;22.60;;;;;;;0.83;78.67;99244.48;2047775;86;34232;-63
2022/12/12 08:25:50;;;;;;;31.30;19.00;;;;;;;0.88;78.63;99250.04;2047847;86;30148;-63
2022/12/12 08:28:52;;;;;;;27.52;17.32;;;;;;;0.94;78.54;99244.16;2047481;87;27749;-63
2022/12/12 08:31:54;;;;;;;26.57;17.48;;;;;;;0.98;78.51;99245.81;2047484;87;29442;-63
2022/12/12 08:34:57;;;;;;;29.98;18.10;;;;;;;0.99;78.30;99248.44;2047333;87;31624;-63
2022/12/12 08:37:59;;;;;;;38.00;21.48;;;;;;;1.02;78.33;99252.28;2047386;86;33151;-62
2022/12/12 08:41:02;;;;;;;44.25;25.45;;;;;;;1.03;78.18;99255.33;2047830;86;30539;-63
2022/12/12 08:44:04;;;;;;;36.10;21.50;;;;;;;1.08;78.43;99259.62;2047714;86;27761;-63
2022/12/12 08:47:06;;;;;;;44.83;25.75;;;;;;;1.12;78.24;99263.91;2047809;86;29871;-63
2022/12/12 08:50:10;;;;;;;48.78;27.85;;;;;;;1.16;78.19;99266.88;2047595;87;31590;-63
2022/12/12 08:53:12;;;;;;;40.15;24.45;;;;;;;1.21;78.21;99272.88;2047734;86;33010;-62
2022/12/12 08:56:15;;;;;;;41.45;25.60;;;;;;;1.23;78.08;99269.74;2047785;87;30172;-61
2022/12/12 08:59:17;;;;;;;31.95;20.52;;;;;;;1.26;77.98;99275.38;2047732;86;27640;-62
2022/12/12 09:02:19;;;;;;;27.55;17.85;;;;;;;1.29;78.06;99268.27;2047447;87;29129;-62
2022/12/12 09:05:20;;;;;;;29.35;18.57;;;;;;;1.34;78.03;99274.72;2025757;87;31865;-62
2022/12/12 09:08:22;;;;;;;25.20;17.30;;;;;;;1.36;78.01;99271.12;1992281;88;33392;-62
2022/12/12 09:11:24;;;;;;;24.75;17.25;;;;;;;1.39;78.09;99270.19;2057150;85;29138;-61
2022/12/12 09:14:25;;;;;;;27.75;19.50;;;;;;;1.45;78.16;99273.95;2076402;85;27768;-61
2022/12/12 09:17:27;;;;;;;31.25;18.70;;;;;;;1.48;78.04;99267.27;2055453;85;29111;-62
2022/12/12 09:20:29;;;;;;;30.65;19.30;;;;;;;1.51;78.04;99269.83;2046613;87;31409;-61
2022/12/12 09:23:31;;;;;;;30.57;18.65;;;;;;;1.57;77.94;99266.13;2042456;87;34501;-62
2022/12/12 09:26:35;;;;;;;34.73;21.15;;;;;;;1.61;77.82;99277.45;2042483;87;30728;-61
2022/12/12 09:29:36;;;;;;;29.40;18.45;;;;;;;1.64;77.74;99270.77;2037318;87;27693;-62
2022/12/12 09:32:38;;;;;;;93.27;43.38;;;;;;;1.65;77.75;99270.75;2035621;87;29143;-62
2022/12/12 09:35:40;;;;;;;46.92;25.30;;;;;;;1.69;77.67;99274.16;2040907;87;31855;-62
2022/12/12 09:38:42;;;;;;;35.20;24.85;;;;;;;1.73;77.69;99274.91;2041121;87;32905;-63
2022/12/12 09:41:44;;;;;;;34.98;25.32;;;;;;;1.78;77.57;99271.69;2041003;87;29356;-63
2022/12/12 09:44:46;;;;;;;51.83;27.87;;;;;;;1.81;77.53;99276.89;2040725;87;27943;-63
2022/12/12 09:47:54;;;;;;;62.10;32.65;;;;;;;1.87;77.66;99268.75;2040826;87;29559;-62
2022/12/12 09:50:56;;;;;;;36.17;22.25;;;;;;;1.94;77.65;99271.63;2040958;87;30584;-63
2022/12/12 09:53:58;;;;;;;31.73;19.05;;;;;;;2.00;77.53;99274.97;2040727;87;33074;-62
2022/12/12 09:57:20;;;;;;;33.83;20.92;;;;;;;2.03;77.50;99267.84;2040717;87;30543;-63
2022/12/12 10:00:22;;;;;;;33.20;18.25;;;;;;;2.06;77.45;99270.39;2040948;87;27707;-62
2022/12/12 10:03:29;;;;;;;31.62;18.67;;;;;;;2.09;77.36;99272.91;2040701;87;29856;-62
2022/12/12 10:06:48;;;;;;;39.92;24.90;;;;;;;2.12;77.24;99278.58;2060693;86;31006;-62
2022/12/12 10:10:33;;;;;;;42.17;23.98;;;;;;;2.15;77.25;99279.80;2068273;85;33423;-63
2022/12/12 10:13:36;;;;;;;35.52;21.23;;;;;;;2.18;77.13;99277.52;2068606;86;29887;-63
2022/12/12 10:16:38;;;;;;;33.33;22.13;;;;;;;2.17;77.02;99275.31;2068598;86;27716;-63
2022/12/12 10:19:56;;;;;;;33.88;19.15;;;;;;;2.19;76.99;99278.77;2068806;86;28853;-63
2022/12/12 10:23:29;;;;;;;32.85;19.55;;;;;;;2.21;76.90;99282.70;2039228;86;31127;-62
2022/12/12 10:26:31;;;;;;;32.30;19.73;;;;;;;2.23;76.95;99281.73;2055140;86;34213;-62
2022/12/12 10:29:34;;;;;;;30.72;17.75;;;;;;;2.26;76.73;99273.70;2055730;86;29421;-62
2022/12/12 10:32:53;;;;;;;31.57;19.15;;;;;;;2.30;76.63;99273.62;2055531;86;27830;-63
2022/12/12 10:36:37;;;;;;;28.85;18.30;;;;;;;2.35;76.71;99272.98;2046871;86;29935;-63
2022/12/12 10:40:08;;;;;;;32.58;20.02;;;;;;;2.42;76.58;99269.25;2001559;88;31929;-64
2022/12/12 10:43:21;;;;;;;34.73;19.82;;;;;;;2.46;76.54;99272.64;1974772;90;34352;-63
2022/12/12 10:46:35;;;;;;;30.62;18.67;;;;;;;2.55;76.65;99269.71;1974383;90;30162;-63
2022/12/12 10:49:37;;;;;;;30.52;17.82;;;;;;;2.65;76.59;99271.59;1974320;90;27766;-64
2022/12/12 10:52:39;;;;;;;28.12;17.55;;;;;;;2.72;76.27;99267.80;1974388;90;29920;-63
2022/12/12 10:56:01;;;;;;;28.57;18.20;;;;;;;2.80;76.13;99272.83;1974692;90;31623;-63
2022/12/12 10:59:04;;;;;;;45.33;25.68;;;;;;;2.85;76.28;99274.39;1974346;90;34974;-64
2022/12/12 11:02:31;;;;;;;28.90;17.92;;;;;;;2.95;76.40;99270.97;1974358;90;28644;-62
2022/12/12 11:05:35;;;;;;;35.33;20.65;;;;;;;3.02;76.21;99269.86;1974060;90;27754;-65
2022/12/12 11:08:36;;;;;;;31.20;17.40;;;;;;;3.12;76.18;99268.19;1974766;90;28585;-62
2022/12/12 11:11:38;;;;;;;30.90;18.85;;;;;;;3.22;76.14;99269.61;1973349;90;30478;-64
2022/12/12 11:14:51;;;;;;;28.65;17.87;;;;;;;3.28;75.59;99262.75;1965582;90;33455;-63
2022/12/12 11:17:58;;;;;;;31.82;18.65;;;;;;;3.32;75.78;99263.48;1997495;89;29378;-63
2022/12/12 11:21:11;;;;;;;30.52;20.25;;;;;;;3.36;75.55;99273.05;2000379;87;27998;-63
2022/12/12 11:24:18;;;;;;;32.45;20.23;;;;;;;3.39;75.55;99268.98;2016520;88;28721;-63
2022/12/12 11:27:30;;;;;;;27.58;17.12;;;;;;;3.44;75.32;99267.47;2016611;88;32500;-64
2022/12/12 11:30:38;;;;;;;27.25;15.78;;;;;;;3.39;74.98;99272.95;2016734;88;33034;-63
2022/12/12 11:33:50;;;;;;;29.65;16.57;;;;;;;3.35;74.91;99275.30;2016526;86;30148;-63
2022/12/12 11:36:52;;;;;;;27.93;16.62;;;;;;;3.34;74.67;99278.86;2044334;86;27618;-63
2022/12/12 11:39:56;;;;;;;25.92;16.40;;;;;;;3.28;74.59;99276.45;2050097;86;29478;-62
2022/12/12 11:43:30;;;;;;;32.03;20.17;;;;;;;3.28;74.75;99281.27;2049971;86;31871;-63
2022/12/12 11:46:32;;;;;;;23.65;15.03;;;;;;;3.32;74.73;99279.37;2049690;86;34168;-63
2022/12/12 11:49:37;;;;;;;25.57;16.45;;;;;;;3.33;74.69;99278.45;2049641;86;31448;-63
2022/12/12 11:52:38;;;;;;;25.32;15.18;;;;;;;3.38;74.68;99273.86;2004515;86;27726;-62
2022/12/12 11:55:58;;;;;;;27.50;14.75;;;;;;;3.44;74.53;99289.53;2049596;86;29551;-62
2022/12/12 11:59:13;;;;;;;21.35;14.60;;;;;;;3.47;74.55;99282.81;2049770;86;31056;-62
2022/12/12 12:02:55;;;;;;;23.95;14.58;;;;;;;3.50;74.27;99293.27;2049366;86;33082;-63
2022/12/12 12:06:11;;;;;;;22.37;14.43;;;;;;;3.50;74.11;99287.12;2050007;86;29718;-62
2022/12/12 12:09:30;;;;;;;20.57;14.58;;;;;;;3.47;74.06;99291.20;2032949;87;27661;-62
2022/12/12 12:12:52;;;;;;;24.27;13.85;;;;;;;3.47;74.07;99294.73;2032944;87;28877;-61
2022/12/12 12:16:08;;;;;;;25.25;15.18;;;;;;;3.48;73.68;99292.92;2033041;87;32201;-61
2022/12/12 12:19:27;;;;;;;24.57;15.80;;;;;;;3.45;73.73;99301.86;2033280;87;33356;-62
2022/12/12 12:23:06;;;;;;;25.05;15.08;;;;;;;3.41;73.75;99298.91;2036462;87;29865;-62
2022/12/12 12:26:28;;;;;;;21.02;14.05;;;;;;;3.39;73.72;99303.86;2039050;87;27661;-61
2022/12/12 12:30:01;;;;;;;20.45;13.48;;;;;;;3.36;73.52;99296.03;2039395;87;29590;-61
2022/12/12 12:33:41;;;;;;;17.05;10.70;;;;;;;3.33;73.56;99304.92;2039277;87;32278;-61
2022/12/12 12:37:23;;;;;;;15.58;10.23;;;;;;;3.27;73.11;99306.48;2039624;87;33777;-62
2022/12/12 12:40:33;;;;;;;21.82;11.50;;;;;;;3.19;73.25;99302.31;2039656;87;29708;-61
2022/12/12 12:43:57;;;;;;;18.00;10.38;;;;;;;3.15;73.23;99313.08;2039036;86;27742;-61
2022/12/12 12:47:31;;;;;;;16.55;10.88;;;;;;;3.13;73.23;99309.61;2039514;87;29172;-62
2022/12/12 12:50:41;;;;;;;13.65;10.03;;;;;;;3.07;73.09;99305.84;2039274;87;31076;-62
2022/12/12 12:53:55;;;;;;;16.17;10.15;;;;;;;3.01;73.20;99304.28;2039335;87;33945;-62
2022/12/12 12:57:11;;;;;;;11.03;6.10;;;;;;;2.99;73.02;99308.31;1993678;89;30536;-62
2022/12/12 13:00:21;;;;;;;15.70;8.63;;;;;;;2.93;72.69;99309.84;1994053;89;28203;-62
2022/12/12 13:03:26;;;;;;;14.30;9.15;;;;;;;2.85;72.76;99318.04;1993869;89;29111;-62
2022/12/12 13:06:51;;;;;;;15.40;9.25;;;;;;;2.80;72.93;99314.70;1993811;89;31234;-63
2022/12/12 13:10:12;;;;;;;22.22;11.00;;;;;;;2.78;72.75;99316.98;1993656;89;33188;-61
2022/12/12 13:13:30;;;;;;;19.12;11.18;;;;;;;2.73;72.62;99314.49;1985217;89;29354;-62
2022/12/12 13:16:32;;;;;;;23.57;11.95;;;;;;;2.68;72.44;99313.77;1993920;89;27708;-62
2022/12/12 13:19:42;;;;;;;28.42;13.32;;;;;;;2.67;72.44;99322.62;1993363;88;29569;-61
2022/12/12 13:22:57;;;;;;;22.65;11.30;;;;;;;2.62;72.51;99320.61;1990381;88;32034;-62
2022/12/12 13:26:10;;;;;;;27.98;12.73;;;;;;;2.63;72.41;99327.16;1983741;89;34195;-62
2022/12/12 13:29:33;;;;;;;28.05;13.05;;;;;;;2.60;72.47;99335.65;1987734;89;30135;-61
2022/12/12 13:32:53;;;;;;;26.48;12.40;;;;;;;2.55;72.49;99336.66;1987414;88;27752;-62
2022/12/12 13:36:05;;;;;;;26.30;12.18;;;;;;;2.52;72.38;99340.72;2033264;87;28794;-62
2022/12/12 13:39:09;;;;;;;23.32;11.03;;;;;;;2.46;72.41;99350.19;2019364;87;31546;-61
2022/12/12 13:42:13;;;;;;;31.35;13.93;;;;;;;2.43;72.30;99350.27;2032202;87;47547;-60
2022/12/12 13:45:37;;;;;;;46.85;17.75;;;;;;;2.39;72.41;99360.09;2033015;87;29739;-62
2022/12/12 13:48:43;;;;;;;29.60;13.93;;;;;;;2.36;72.48;99358.86;2032790;87;27561;-62
2022/12/12 13:51:45;;;;;;;32.42;16.82;;;;;;;2.33;72.43;99360.27;2033109;87;28692;-60
2022/12/12 13:54:48;;;;;;;23.67;12.33;;;;;;;2.30;72.48;99365.64;2033153;87;31103;-61
2022/12/12 13:58:09;;;;;;;20.95;11.05;;;;;;;2.27;72.40;99369.25;2033032;87;34174;-61
2022/12/12 14:01:33;;;;;;;28.23;14.30;;;;;;;2.24;72.40;99377.27;2032751;87;30787;-61
2022/12/12 14:04:42;;;;;;;23.52;12.75;;;;;;;2.21;72.25;99377.83;2033455;87;27570;-61
2022/12/12 14:07:52;;;;;;;13.32;8.45;;;;;;;2.16;72.46;99381.05;2031657;87;28344;-60
2022/12/12 14:10:58;;;;;;;11.55;7.78;;;;;;;2.11;72.27;99381.20;2032976;87;31436;-62
2022/12/12 14:14:07;;;;;;;15.03;8.08;;;;;;;2.05;72.29;99387.53;2033088;87;33433;-62
2022/12/12 14:17:21;;;;;;;14.63;8.83;;;;;;;2.01;72.35;99391.61;2033099;87;30105;-62
2022/12/12 14:20:30;;;;;;;17.12;9.98;;;;;;;1.93;72.33;99399.76;2033076;87;27699;-61
2022/12/12 14:23:39;;;;;;;11.10;8.40;;;;;;;1.89;72.41;99400.31;2036734;87;29923;-61
2022/12/12 14:26:47;;;;;;;13.90;8.50;;;;;;;1.83;72.23;99405.75;2039384;87;31341;-62
2022/12/12 14:29:49;;;;;;;17.95;8.55;;;;;;;1.73;72.15;99401.66;2039448;87;34131;-62
2022/12/12 14:33:17;;;;;;;19.30;9.45;;;;;;;1.67;72.15;99407.97;2039382;87;30590;-60
2022/12/12 14:36:44;;;;;;;40.55;16.37;;;;;;;1.58;72.28;99399.85;2039542;87;27679;-62
2022/12/12 14:40:09;;;;;;;28.20;12.13;;;;;;;1.49;72.24;99406.24;2038990;87;29534;-63
2022/12/12 14:43:29;;;;;;;41.95;16.85;;;;;;;1.40;72.17;99400.34;2039369;87;32331;-62
2022/12/12 14:46:40;;;;;;;23.47;10.98;;;;;;;1.31;72.21;99402.77;2038669;87;34098;-62